Etusivu
METAR-TAF:

METAR-TAF

Lentoasemat :

Stephenvillen kansainvälinen lentoasema

Stephenville, Newfoundland ja Labrador, Kanada

Leveyspiiri: 48-32N, Pituuspiiri: 058-33W, korkeus merenpinnasta: 8 m

Tämänhetkinen sää

Tämä raportti tehtiin 1 tunti ja 1 minuuttia sitten, kello 04.00 UTC
tyyntä
Lämpötila 3°C
Kosteus 93%
Ilmanpaine 1014 hPa
Näkyvyys: 24.1 km
selkeää

METAR: CYJT 250400Z 00000KT 15SM SKC 03/02 A2993 RMK SLP138

Aika: 02:31 (05:01 UTC)

Sääennuste

Tämä raportti tehtiin 5 tuntia ja 23 minuuttia sitten, kello 23.38 UTC
Ennuste voimassa 25. päivästä klo 00 UTC - 25. päivään klo 24 UTC
Tuuli 6 kn lännestä/luoteesta
Näkyvyys: 10 km
Muutamia pilviä 25000 ft:n korkeudessa
From 25. päivästä klo 0600 UTC
Tuuli 3 kn eri suunnista
Näkyvyys: 10 km
selkeää
Tulossa
25. päivästä klo 14 UTC - 25. päivään klo 16 UTC
Tuuli 12 kn lännestä/luoteesta

TAF: CYJT 242338Z 2500/2524 30006KT P6SM FEW250 FM250600 VRB03KT P6SM SKC BECMG 2514/2516 30012KT RMK NXT FCST BY 250600Z

Säähavainnot ja -ennusteet yli 4000 lentoasemalta (METAR- ja TAF-raportit).

Käytössä olevat sääasemat on merkitty karttaan keltaisilla ja punaisilla pisteillä.

Aseta hiiri pisteen päälle nähdäksesi sääaseman nimen.

Klikkaa sitten nähdäksesi säähavainnot ja -ennusteet.

Kartan vaihtaminen: klikkaa mustalla rastilla varustettuja vihreitä pisteitä, niin voit zoomata sisään; viivalla varustettua vihreää pistettä, niin voit zoomata ulos tai vihreitä nuolia, niin pääset viereisille kartoille.


METAR-TAF: